In Rescue
 
Open Full Screen Window  High Contrast Mode
Wind Gusting 00 knots
03
August 09, 2020 8:02 PM EDT
Weather Information
Wind Direction
  180 °
Wind Speed
  03 kt (3 mph)
Wind Gust
  00 kt (0 mph)
Altimeter
30.01 in
Visibility
10 SM
Temperature
28° C
82° F
Dewpoint
21° C
70° F
Humidity
66%
Sky Condition
Clear
VFR

METAR KOEB 100002Z AUTO 18003KT 10SM CLR 28/21 A3001 RMK AO2 T02770206

FAA Disclaimer: The data displayed is for advisory purposes only and is not to be used for flight planning or operations.